createdAt,value
2019-02-21T00:00:24.425Z,5.56
2019-02-21T00:05:21.417Z,5.38
2019-02-21T00:10:21.438Z,5.38
2019-02-21T00:15:21.453Z,5.25
2019-02-21T00:20:21.449Z,5.19
2019-02-21T00:25:21.471Z,5.13
2019-02-21T00:30:21.566Z,5.06
2019-02-21T00:35:21.465Z,5.06
2019-02-21T00:40:21.456Z,5
2019-02-21T00:45:21.458Z,4.88
2019-02-21T00:50:21.449Z,4.88
2019-02-21T00:55:21.461Z,4.81
2019-02-21T01:00:21.489Z,4.75
2019-02-21T01:05:21.462Z,4.69
2019-02-21T01:10:21.469Z,4.63
2019-02-21T01:15:21.452Z,4.63
2019-02-21T01:20:21.502Z,4.56
2019-02-21T01:25:21.468Z,4.5
2019-02-21T01:30:21.465Z,4.5
2019-02-21T01:35:21.471Z,4.5
2019-02-21T01:40:21.502Z,4.44
2019-02-21T01:45:21.519Z,4.5
2019-02-21T01:50:21.462Z,4.56
2019-02-21T01:55:21.478Z,4.63
2019-02-21T02:00:21.477Z,4.69
2019-02-21T02:05:21.470Z,4.69
2019-02-21T02:10:21.476Z,4.69
2019-02-21T02:15:21.516Z,4.69
2019-02-21T02:20:21.485Z,4.63
2019-02-21T02:25:21.533Z,4.56
2019-02-21T02:30:21.475Z,4.56
2019-02-21T02:35:21.513Z,4.5
2019-02-21T02:40:21.508Z,4.5
2019-02-21T02:45:21.533Z,4.5
2019-02-21T02:50:21.494Z,4.5
2019-02-21T02:55:21.486Z,4.56
2019-02-21T03:00:21.488Z,4.56
2019-02-21T03:05:26.458Z,4.63
2019-02-21T03:10:21.496Z,4.63
2019-02-21T03:15:21.492Z,4.56
2019-02-21T03:20:21.493Z,4.56
2019-02-21T03:25:21.493Z,4.5
2019-02-21T03:30:21.500Z,4.5
2019-02-21T03:35:21.506Z,4.5
2019-02-21T03:40:21.516Z,4.5
2019-02-21T03:45:21.542Z,4.56
2019-02-21T03:50:21.511Z,4.56
2019-02-21T03:55:21.520Z,4.5
2019-02-21T04:00:21.511Z,4.5
2019-02-21T04:05:21.508Z,4.56
2019-02-21T04:10:21.510Z,4.63
2019-02-21T04:15:21.518Z,4.69
2019-02-21T04:20:21.514Z,4.69
2019-02-21T04:25:21.550Z,4.81
2019-02-21T04:30:21.525Z,4.88
2019-02-21T04:35:21.548Z,4.88
2019-02-21T04:40:21.554Z,4.88
2019-02-21T04:45:21.568Z,4.94
2019-02-21T04:50:21.535Z,4.94
2019-02-21T04:55:21.519Z,4.88
2019-02-21T05:00:21.539Z,4.88
2019-02-21T05:05:21.517Z,4.94
2019-02-21T05:10:21.533Z,4.94
2019-02-21T05:15:21.525Z,5
2019-02-21T05:20:21.556Z,5
2019-02-21T05:25:21.528Z,5
2019-02-21T05:30:21.540Z,5
2019-02-21T05:35:21.555Z,5
2019-02-21T05:40:21.581Z,5
2019-02-21T05:45:21.602Z,5
2019-02-21T05:50:21.605Z,5
2019-02-21T05:55:21.541Z,5
2019-02-21T06:00:21.530Z,5
2019-02-21T06:05:21.578Z,5.06
2019-02-21T06:10:21.566Z,5.13
2019-02-21T06:15:21.552Z,5.13
2019-02-21T06:20:21.538Z,5.19
2019-02-21T06:25:21.600Z,5.25
2019-02-21T06:30:21.557Z,5.25
2019-02-21T06:35:21.541Z,5.31
2019-02-21T06:40:21.587Z,5.31
2019-02-21T06:45:21.547Z,5.44
2019-02-21T06:50:26.568Z,5.44
2019-02-21T06:55:21.557Z,5.5
2019-02-21T07:00:21.554Z,5.56
2019-02-21T07:05:21.569Z,5.69
2019-02-21T07:10:21.554Z,5.75
2019-02-21T07:15:21.522Z,5.81
2019-02-21T07:20:21.536Z,5.88
2019-02-21T07:25:21.558Z,6
2019-02-21T07:30:23.193Z,6.13
2019-02-21T07:35:21.574Z,6.13
2019-02-21T07:40:21.595Z,6.25
2019-02-21T07:45:21.571Z,6.31
2019-02-21T07:50:23.100Z,6.25
2019-02-21T07:55:21.559Z,6.31
2019-02-21T08:00:21.560Z,6.38
2019-02-21T08:05:23.565Z,6.44
2019-02-21T08:10:32.726Z,6.56
2019-02-21T08:15:21.606Z,6.63
2019-02-21T08:20:21.586Z,6.75
2019-02-21T08:25:21.566Z,7.13
2019-02-21T08:30:21.649Z,7.31
2019-02-21T08:35:21.577Z,7.56
2019-02-21T08:40:21.574Z,7.63
2019-02-21T08:45:21.631Z,7.56
2019-02-21T08:50:22.392Z,7.56
2019-02-21T08:55:21.588Z,7.56
2019-02-21T09:00:21.615Z,7.5
2019-02-21T09:05:21.586Z,7.56
2019-02-21T09:10:21.582Z,7.63
2019-02-21T09:15:21.636Z,7.75
2019-02-21T09:20:21.591Z,7.75
2019-02-21T09:25:21.631Z,7.75
2019-02-21T09:30:21.589Z,7.81
2019-02-21T09:35:21.595Z,7.94
2019-02-21T09:40:21.610Z,8.13
2019-02-21T09:45:21.597Z,8.38
2019-02-21T09:50:21.592Z,8.44
2019-02-21T09:55:21.594Z,8.5
2019-02-21T10:00:21.595Z,8.44
2019-02-21T10:05:21.649Z,8.38
2019-02-21T10:10:21.667Z,8.31
2019-02-21T10:15:21.600Z,8.31
2019-02-21T10:20:21.606Z,8.25
2019-02-21T10:25:23.038Z,8.31
2019-02-21T10:30:21.606Z,8.44
2019-02-21T10:35:21.612Z,8.56
2019-02-21T10:40:21.785Z,8.75
2019-02-21T10:45:21.622Z,8.94
2019-02-21T10:50:21.590Z,9
2019-02-21T10:55:21.593Z,9.06
2019-02-21T11:00:21.622Z,9.13
2019-02-21T11:05:21.595Z,9.44
2019-02-21T11:10:21.600Z,9.56
2019-02-21T11:15:21.613Z,9.63
2019-02-21T11:20:21.621Z,9.69
2019-02-21T11:25:21.623Z,9.81
2019-02-21T11:30:21.654Z,9.81
2019-02-21T11:35:21.626Z,9.94
2019-02-21T11:40:21.624Z,10.13
2019-02-21T11:45:21.630Z,10.06
2019-02-21T11:50:21.636Z,10.19
2019-02-21T11:55:21.636Z,10.5
2019-02-21T12:00:21.690Z,11
2019-02-21T12:05:30.309Z,10.69
2019-02-21T12:10:21.632Z,10.75
2019-02-21T12:15:21.635Z,10.81
2019-02-21T12:20:21.799Z,10.81
2019-02-21T12:25:21.644Z,10.94
2019-02-21T12:30:21.674Z,10.94
2019-02-21T12:35:28.988Z,10.94
2019-02-21T12:40:21.660Z,10.81
2019-02-21T12:45:21.691Z,10.81
2019-02-21T12:50:21.677Z,10.88
2019-02-21T12:55:27.522Z,10.75
2019-02-21T13:00:21.658Z,10.56
2019-02-21T13:05:21.646Z,10.69
2019-02-21T13:10:21.653Z,10.69
2019-02-21T13:15:21.648Z,10.69
2019-02-21T13:20:21.653Z,10.69
2019-02-21T13:25:21.655Z,10.38
2019-02-21T13:30:21.656Z,10.44
2019-02-21T13:35:21.675Z,10.44
2019-02-21T13:40:21.656Z,10.5
2019-02-21T13:45:21.659Z,10.5
2019-02-21T13:50:23.618Z,10.56
2019-02-21T13:55:21.658Z,10.69
2019-02-21T14:00:21.703Z,10.69
2019-02-21T14:05:21.675Z,10.69
2019-02-21T14:10:21.665Z,10.69
2019-02-21T14:15:21.671Z,10.88
2019-02-21T14:20:21.665Z,11
2019-02-21T14:25:21.676Z,11
2019-02-21T14:30:21.666Z,10.94
2019-02-21T14:35:21.718Z,10.81
2019-02-21T14:40:21.691Z,10.69
2019-02-21T14:45:21.657Z,10.63
2019-02-21T14:50:21.686Z,10.63
2019-02-21T14:55:21.669Z,10.63
2019-02-21T15:00:21.674Z,10.56
2019-02-21T15:05:21.723Z,10.63
2019-02-21T15:10:21.650Z,10.63
2019-02-21T15:15:22.232Z,10.69
2019-02-21T15:20:21.760Z,10.69
2019-02-21T15:25:21.684Z,10.63
2019-02-21T15:30:21.716Z,10.56
2019-02-21T15:35:21.680Z,10.5
2019-02-21T15:40:21.695Z,10.5
2019-02-21T15:45:23.261Z,10.44
2019-02-21T15:50:21.704Z,10.44
2019-02-21T15:55:21.701Z,10.38
2019-02-21T16:00:21.695Z,10.38
2019-02-21T16:05:21.687Z,10.31
2019-02-21T16:10:21.682Z,10.31
2019-02-21T16:15:21.706Z,10.19
2019-02-21T16:20:21.667Z,10.13
2019-02-21T16:25:21.703Z,9.63
2019-02-21T16:30:22.166Z,9.38
2019-02-21T16:35:21.694Z,9.13
2019-02-21T16:40:21.715Z,8.94
2019-02-21T16:45:21.723Z,8.94
2019-02-21T16:50:29.554Z,8.94
2019-02-21T16:55:21.703Z,9
2019-02-21T17:00:21.747Z,9.13
2019-02-21T17:05:21.716Z,9.13
2019-02-21T17:10:21.717Z,9.13
2019-02-21T17:15:21.761Z,9.19
2019-02-21T17:20:21.721Z,9.19
2019-02-21T17:25:21.738Z,9.19
2019-02-21T17:30:21.757Z,9.19
2019-02-21T17:35:21.719Z,9.25
2019-02-21T17:40:21.736Z,9.25
2019-02-21T17:45:21.736Z,9.25
2019-02-21T17:50:21.718Z,9.25
2019-02-21T17:55:21.736Z,9.25
2019-02-21T18:00:21.757Z,9.25
2019-02-21T18:05:21.724Z,9.25
2019-02-21T18:10:21.720Z,9.25
2019-02-21T18:15:21.735Z,9.25
2019-02-21T18:20:21.735Z,9.19
2019-02-21T18:25:21.738Z,9.19
2019-02-21T18:30:21.727Z,9.19
2019-02-21T18:35:21.710Z,9.19
2019-02-21T18:40:21.749Z,9.19
2019-02-21T18:45:21.809Z,9.31
2019-02-21T18:50:21.742Z,9.31
2019-02-21T18:55:21.744Z,9.38
2019-02-21T19:00:21.735Z,9.38
2019-02-21T19:05:21.744Z,9.44
2019-02-21T19:10:21.758Z,9.5
2019-02-21T19:15:21.807Z,9.5
2019-02-21T19:20:21.766Z,9.5
2019-02-21T19:25:21.748Z,9.44
2019-02-21T19:30:21.780Z,9.31
2019-02-21T19:35:21.751Z,9.19
2019-02-21T19:40:21.748Z,9.19
2019-02-21T19:45:21.831Z,9.19
2019-02-21T19:50:21.750Z,9.19
2019-02-21T19:55:21.757Z,9.19
2019-02-21T20:00:21.786Z,9.19
2019-02-21T20:05:21.774Z,9.13
2019-02-21T20:10:21.849Z,8.94
2019-02-21T20:15:21.790Z,8.81
2019-02-21T20:20:21.737Z,8.63
2019-02-21T20:25:21.739Z,8.5
2019-02-21T20:30:21.802Z,8.44
2019-02-21T20:35:21.763Z,8.38
2019-02-21T20:40:21.739Z,8.31
2019-02-21T20:45:21.766Z,8.19
2019-02-21T20:50:21.778Z,8.19
2019-02-21T20:55:21.778Z,8.25
2019-02-21T21:00:21.801Z,8.31
2019-02-21T21:05:21.789Z,8.38
2019-02-21T21:10:21.744Z,8.38
2019-02-21T21:15:21.814Z,8.31
2019-02-21T21:20:21.781Z,8.25
2019-02-21T21:25:21.786Z,8.06
2019-02-21T21:30:21.810Z,8.06
2019-02-21T21:35:21.781Z,8.06
2019-02-21T21:40:21.789Z,8.13
2019-02-21T21:45:21.865Z,8.06
2019-02-21T21:50:21.782Z,8.06
2019-02-21T21:55:21.786Z,8.06
2019-02-21T22:00:21.844Z,8
2019-02-21T22:05:21.797Z,7.94
2019-02-21T22:10:21.764Z,7.88
2019-02-21T22:15:21.832Z,7.88
2019-02-21T22:20:21.830Z,7.88
2019-02-21T22:25:21.772Z,7.75
2019-02-21T22:30:21.792Z,7.81
2019-02-21T22:35:21.816Z,7.88
2019-02-21T22:40:21.864Z,7.94
2019-02-21T22:45:21.811Z,8
2019-02-21T22:50:21.822Z,8
2019-02-21T22:55:21.809Z,8
2019-02-21T23:00:21.845Z,8
2019-02-21T23:05:21.781Z,7.88
2019-02-21T23:10:21.777Z,7.81
2019-02-21T23:15:21.885Z,7.81
2019-02-21T23:20:21.859Z,7.88
2019-02-21T23:25:21.778Z,7.94
2019-02-21T23:30:21.818Z,8
2019-02-21T23:35:21.804Z,8
2019-02-21T23:40:21.788Z,8.06
2019-02-21T23:45:21.860Z,8.13
2019-02-21T23:50:21.828Z,8.13
2019-02-21T23:55:21.802Z,8.19
